Time;durP1;ratioP1;P1;durP2;ratioP2;P2;SDS_P1;SDS_P2;PMS_P1;PMS_P2;Temp;Humidity;BMP_temperature;BMP_pressure;BME280_temperature;BME280_humidity;BME280_pressure;Samples;Min_cycle;Max_cycle;Signal;HPM_P1;HPM_P2
2024/01/24 00:01:33;;;;;;;12.57;11.77;;;;;;;1.75;94.97;93753.28;5029001;28;20234;-76
2024/01/24 00:03:59;;;;;;;13.83;12.90;;;;;;;1.96;95.47;93765.16;5029879;28;20217;-76
2024/01/24 00:06:25;;;;;;;13.57;12.67;;;;;;;1.89;95.08;93751.47;5028693;28;20182;-77
2024/01/24 00:08:50;;;;;;;17.47;15.97;;;;;;;2.02;94.06;93772.09;5029980;28;20208;-76
2024/01/24 00:11:16;;;;;;;14.80;13.47;;;;;;;2.11;93.64;93782.00;5029112;28;20189;-76
2024/01/24 00:13:41;;;;;;;13.87;12.97;;;;;;;1.99;94.50;93775.06;5029779;28;20195;-76
2024/01/24 00:16:07;;;;;;;13.50;12.50;;;;;;;2.07;93.31;93778.22;5029499;28;20182;-76
2024/01/24 00:18:32;;;;;;;13.87;12.73;;;;;;;2.12;93.43;93795.69;5029324;28;20294;-76
2024/01/24 00:20:57;;;;;;;15.70;14.43;;;;;;;2.14;93.58;93788.53;5045212;28;20194;-76
2024/01/24 00:23:24;;;;;;;14.20;13.10;;;;;;;2.23;93.24;93795.06;5029164;28;20321;-76
2024/01/24 00:25:50;;;;;;;12.93;12.13;;;;;;;2.22;92.89;93788.34;5029170;28;20202;-76
2024/01/24 00:28:16;;;;;;;12.87;11.80;;;;;;;2.06;92.82;93774.06;5029229;28;20218;-75
2024/01/24 00:30:42;;;;;;;14.70;13.33;;;;;;;2.21;93.16;93789.34;5029487;28;20182;-76
2024/01/24 00:33:08;;;;;;;13.33;12.37;;;;;;;2.28;92.23;93797.84;5029087;28;20227;-76
2024/01/24 00:35:34;;;;;;;12.37;11.47;;;;;;;2.19;91.93;93801.63;5028508;28;20281;-75
2024/01/24 00:37:59;;;;;;;13.47;12.27;;;;;;;2.24;91.57;93801.81;5028871;28;20230;-76
2024/01/24 00:40:24;;;;;;;14.60;13.40;;;;;;;2.11;92.15;93783.78;5029494;28;20197;-76
2024/01/24 00:42:50;;;;;;;13.77;12.67;;;;;;;2.06;92.93;93783.56;5028476;28;20224;-76
2024/01/24 00:45:15;;;;;;;13.93;12.53;;;;;;;2.06;91.98;93786.16;5026881;28;20214;-75
2024/01/24 00:47:40;;;;;;;12.83;11.93;;;;;;;2.14;93.10;93796.25;5030303;28;20252;-77
2024/01/24 00:50:07;;;;;;;13.33;12.13;;;;;;;2.09;92.25;93803.78;5033425;28;20234;-76
2024/01/24 00:52:33;;;;;;;12.33;11.37;;;;;;;2.14;91.75;93803.97;5032360;28;20234;-75
2024/01/24 00:54:58;;;;;;;14.40;13.23;;;;;;;2.15;92.72;93800.44;5032940;28;20217;-76
2024/01/24 00:57:24;;;;;;;13.83;12.80;;;;;;;2.00;91.49;93784.38;5032588;28;20239;-77
2024/01/24 00:59:49;;;;;;;13.93;12.93;;;;;;;1.98;92.81;93778.66;5032462;28;20209;-76
2024/01/24 01:02:14;;;;;;;14.47;13.60;;;;;;;2.06;92.98;93802.41;5032222;28;20226;-77
2024/01/24 01:04:40;;;;;;;13.70;12.50;;;;;;;1.98;93.42;93800.00;5048142;28;20270;-76
2024/01/24 01:07:05;;;;;;;13.60;12.60;;;;;;;1.92;92.27;93790.50;5032643;28;20249;-76
2024/01/24 01:09:31;;;;;;;13.37;12.47;;;;;;;1.88;92.53;93801.41;5048042;28;20194;-77
2024/01/24 01:11:57;;;;;;;14.07;13.07;;;;;;;1.89;92.83;93790.09;5031050;28;20278;-77
2024/01/24 01:14:22;;;;;;;13.57;12.67;;;;;;;1.78;93.43;93773.47;5032481;28;20193;-77
2024/01/24 01:16:47;;;;;;;15.10;13.87;;;;;;;1.85;93.66;93774.28;5031729;28;20310;-76
2024/01/24 01:19:13;;;;;;;15.00;13.80;;;;;;;1.79;95.09;93782.00;5032901;28;20254;-77
2024/01/24 01:21:40;;;;;;;15.43;13.87;;;;;;;1.76;93.35;93772.09;5031899;28;20273;-76
2024/01/24 01:24:06;;;;;;;12.80;11.93;;;;;;;1.77;92.69;93768.50;5032154;28;20249;-76
2024/01/24 01:26:35;;;;;;;14.20;13.10;;;;;;;1.88;92.50;93791.91;5032024;28;20234;-76
2024/01/24 01:29:01;;;;;;;12.40;11.50;;;;;;;1.90;92.55;93781.41;5032264;28;20201;-75
2024/01/24 01:31:26;;;;;;;15.57;14.20;;;;;;;1.95;94.04;93782.38;5030248;28;20179;-76
2024/01/24 01:33:51;;;;;;;13.13;12.20;;;;;;;1.87;94.10;93774.06;5032556;28;20202;-76
2024/01/24 01:36:17;;;;;;;13.77;12.73;;;;;;;1.95;92.96;93794.47;5031250;28;20187;-77
2024/01/24 01:38:42;;;;;;;13.07;11.87;;;;;;;1.94;93.85;93785.16;5032335;28;20239;-76
2024/01/24 01:41:07;;;;;;;15.13;13.77;;;;;;;1.97;93.51;93784.75;5031841;28;20175;-76
2024/01/24 01:43:33;;;;;;;14.37;13.27;;;;;;;1.93;93.75;93768.13;5024118;28;20296;-76
2024/01/24 01:46:05;;;;;;;13.67;12.67;;;;;;;2.03;93.29;93781.41;5031719;28;20191;-76
2024/01/24 01:48:32;;;;;;;13.37;12.37;;;;;;;2.05;93.36;93784.56;5020202;28;20254;-75
2024/01/24 01:50:57;;;;;;;12.77;12.00;;;;;;;1.92;92.75;93769.09;5030575;28;20175;-76
2024/01/24 01:53:23;;;;;;;13.00;12.03;;;;;;;1.81;91.21;93760.19;5031425;28;20222;-76
2024/01/24 01:55:49;;;;;;;13.20;12.17;;;;;;;1.91;91.12;93758.03;5031433;28;20197;-76
2024/01/24 01:58:15;;;;;;;13.13;12.20;;;;;;;1.95;89.56;93755.84;5031117;28;20210;-75
2024/01/24 02:00:41;;;;;;;13.87;12.73;;;;;;;2.01;90.39;93765.38;5031980;28;20198;-76
2024/01/24 02:03:06;;;;;;;13.57;12.33;;;;;;;1.92;89.10;93745.94;5031260;28;20218;-78
2024/01/24 02:05:32;;;;;;;13.57;12.67;;;;;;;1.91;89.97;93747.72;5031501;28;20234;-77
2024/01/24 02:07:58;;;;;;;13.73;12.57;;;;;;;1.93;88.62;93743.16;5030963;28;20245;-77
2024/01/24 02:10:23;;;;;;;13.63;12.47;;;;;;;2.04;88.31;93752.09;5033663;28;20213;-77
2024/01/24 02:12:49;;;;;;;13.07;12.17;;;;;;;2.02;87.94;93754.06;5031031;28;20230;-77
2024/01/24 02:15:14;;;;;;;13.53;12.67;;;;;;;1.95;88.56;93737.81;5046829;28;20419;-77
2024/01/24 02:17:40;;;;;;;13.80;12.90;;;;;;;2.01;88.65;93757.66;5030997;28;20219;-77
2024/01/24 02:20:09;;;;;;;15.27;13.87;;;;;;;1.99;88.74;93751.91;5031705;28;20285;-78
2024/01/24 02:22:35;;;;;;;13.77;12.77;;;;;;;2.02;88.67;93751.50;5029859;28;20732;-77
2024/01/24 02:25:00;;;;;;;13.97;12.77;;;;;;;1.99;89.25;93749.31;5030874;28;20214;-77
2024/01/24 02:27:26;;;;;;;15.20;13.93;;;;;;;2.06;89.01;93762.97;5030851;28;20215;-77
2024/01/24 02:29:56;;;;;;;14.43;13.40;;;;;;;2.01;88.70;93755.84;5031021;28;20182;-76
2024/01/24 02:32:21;;;;;;;14.63;13.57;;;;;;;1.83;89.41;93752.28;5029608;28;20305;-76
2024/01/24 02:34:46;;;;;;;14.30;13.03;;;;;;;1.93;92.25;93750.13;5031141;28;20178;-76
2024/01/24 02:37:12;;;;;;;14.87;13.50;;;;;;;1.89;87.74;93754.84;5030945;28;20227;-76
2024/01/24 02:39:37;;;;;;;14.07;12.77;;;;;;;1.86;87.99;93733.84;5031502;28;20543;-76
2024/01/24 02:42:02;;;;;;;14.90;13.30;;;;;;;1.95;88.21;93753.25;5030109;28;20233;-75
2024/01/24 02:44:28;;;;;;;13.60;12.50;;;;;;;1.97;87.95;93752.09;5030488;28;20235;-76
2024/01/24 02:46:54;;;;;;;12.70;11.87;;;;;;;1.99;88.06;93744.16;5030420;28;20261;-76
2024/01/24 02:49:19;;;;;;;14.50;13.37;;;;;;;2.05;88.59;93733.06;5031060;28;20187;-76
2024/01/24 02:51:45;;;;;;;16.37;14.73;;;;;;;1.99;87.61;93737.25;5030657;28;20310;-76
2024/01/24 02:54:10;;;;;;;14.33;13.00;;;;;;;1.95;88.90;93712.06;5030886;28;20241;-75
2024/01/24 02:56:37;;;;;;;13.97;12.73;;;;;;;2.00;87.87;93730.28;5030258;28;20257;-76
2024/01/24 02:59:02;;;;;;;14.73;13.53;;;;;;;1.89;88.06;93739.41;5031020;28;20230;-75
2024/01/24 03:01:28;;;;;;;14.20;13.10;;;;;;;2.04;89.21;93741.78;5029141;28;20258;-76
2024/01/24 03:03:53;;;;;;;13.23;12.17;;;;;;;1.97;89.22;93752.09;5046003;28;20298;-76
2024/01/24 03:06:18;;;;;;;14.17;13.10;;;;;;;1.88;88.38;93742.19;5030360;28;20210;-75
2024/01/24 03:08:51;;;;;;;14.13;12.97;;;;;;;1.97;88.32;93756.44;5029524;28;20186;-76
2024/01/24 03:11:17;;;;;;;14.23;12.83;;;;;;;1.89;88.54;93751.47;5029140;28;20191;-75
2024/01/24 03:13:43;;;;;;;13.63;12.37;;;;;;;1.90;89.00;93755.66;5030640;28;20187;-76
2024/01/24 03:16:09;;;;;;;15.30;14.07;;;;;;;1.85;89.67;93747.72;5030334;28;20175;-75
2024/01/24 03:18:38;;;;;;;13.37;12.47;;;;;;;1.89;89.44;93746.34;5029899;28;20229;-75
2024/01/24 03:21:09;;;;;;;14.40;13.10;;;;;;;1.86;89.69;93742.38;5026766;28;20205;-76
2024/01/24 03:23:37;;;;;;;15.10;14.00;;;;;;;1.82;90.27;93742.97;5029873;28;20218;-76
2024/01/24 03:26:03;;;;;;;16.27;14.70;;;;;;;1.80;90.64;93737.22;5030593;28;20205;-76
2024/01/24 03:28:29;;;;;;;14.23;13.13;;;;;;;1.76;89.51;93721.38;5030018;28;20226;-76
2024/01/24 03:30:54;;;;;;;15.53;14.23;;;;;;;1.87;90.17;93736.22;5029833;28;20187;-76
2024/01/24 03:33:21;;;;;;;14.77;13.67;;;;;;;1.85;90.12;93727.13;5029986;28;20233;-76
2024/01/24 03:35:46;;;;;;;15.20;13.83;;;;;;;1.81;90.67;93725.94;5030121;28;20209;-75
2024/01/24 03:38:12;;;;;;;14.23;12.80;;;;;;;1.82;89.62;93741.22;5029947;28;20215;-75
2024/01/24 03:40:37;;;;;;;15.33;14.00;;;;;;;1.81;89.37;93749.91;5030531;28;20202;-75
2024/01/24 03:43:02;;;;;;;14.17;13.03;;;;;;;1.84;88.51;93744.34;5029554;28;20222;-75
2024/01/24 03:45:28;;;;;;;14.67;13.53;;;;;;;1.80;88.60;93750.09;5030072;28;20791;-76
2024/01/24 03:47:53;;;;;;;14.50;13.47;;;;;;;1.84;88.31;93751.31;5029279;28;20229;-76
2024/01/24 03:50:18;;;;;;;14.73;13.43;;;;;;;1.74;89.96;93723.38;5030537;28;20273;-75
2024/01/24 03:52:44;;;;;;;14.57;13.33;;;;;;;1.85;91.15;93747.72;5029168;28;20237;-75
2024/01/24 03:55:09;;;;;;;13.83;12.50;;;;;;;1.77;88.72;93756.44;5030077;28;20194;-76
2024/01/24 03:57:34;;;;;;;13.40;12.50;;;;;;;1.76;88.85;93743.78;5029044;28;20237;-75
2024/01/24 04:00:00;;;;;;;14.60;13.43;;;;;;;1.85;89.45;93745.16;5030010;28;20194;-76
2024/01/24 04:02:25;;;;;;;14.60;13.53;;;;;;;1.77;90.21;93737.63;5028985;28;20278;-77
2024/01/24 04:04:51;;;;;;;13.53;12.47;;;;;;;1.76;90.67;93718.03;5029595;28;20214;-75
2024/01/24 04:07:16;;;;;;;14.10;12.77;;;;;;;1.77;89.26;93743.56;5029626;28;20233;-75
2024/01/24 04:09:42;;;;;;;14.30;13.30;;;;;;;1.66;88.70;93723.56;5029993;28;20181;-76
2024/01/24 04:12:07;;;;;;;15.00;13.80;;;;;;;1.71;88.37;93741.78;5029250;28;20217;-76
2024/01/24 04:14:33;;;;;;;13.50;12.37;;;;;;;1.72;88.52;93758.00;5029940;28;20210;-76
2024/01/24 04:16:58;;;;;;;15.07;13.57;;;;;;;1.55;89.12;93763.56;5028906;28;20250;-77
2024/01/24 04:19:24;;;;;;;13.33;12.23;;;;;;;1.70;90.09;93771.06;5029880;28;20187;-76
2024/01/24 04:21:49;;;;;;;14.90;13.60;;;;;;;1.94;94.07;93761.97;5030196;28;20257;-77
2024/01/24 04:24:15;;;;;;;13.93;12.63;;;;;;;1.82;89.98;93753.28;5033303;28;20209;-76
2024/01/24 04:26:41;;;;;;;14.07;13.07;;;;;;;1.53;89.27;93733.84;5032989;28;20223;-76
2024/01/24 04:29:06;;;;;;;14.93;13.40;;;;;;;1.67;90.12;93756.81;5033739;28;20242;-76
2024/01/24 04:31:32;;;;;;;15.13;13.83;;;;;;;1.67;91.21;93767.13;5032845;28;20261;-76
2024/01/24 04:33:57;;;;;;;16.33;14.83;;;;;;;1.55;89.90;93763.56;5048442;28;20194;-75
2024/01/24 04:36:22;;;;;;;16.40;15.10;;;;;;;1.54;90.18;93774.03;5032373;28;20465;-75
2024/01/24 04:38:48;;;;;;;16.37;14.97;;;;;;;1.67;92.43;93765.53;5032105;28;20205;-75
2024/01/24 04:41:13;;;;;;;14.93;13.70;;;;;;;1.80;90.72;93786.94;5032175;28;20210;-75
2024/01/24 04:43:39;;;;;;;14.17;12.73;;;;;;;1.86;90.30;93775.03;5048011;28;20221;-80
2024/01/24 04:46:11;;;;;;;14.10;12.97;;;;;;;1.56;88.74;93769.47;5032883;28;20187;-73
2024/01/24 04:48:37;;;;;;;13.87;12.87;;;;;;;1.56;89.51;93774.63;5032555;28;20218;-73
2024/01/24 04:51:03;;;;;;;14.03;13.03;;;;;;;1.63;88.94;93773.63;5032329;28;20194;-74
2024/01/24 04:53:28;;;;;;;14.37;13.27;;;;;;;1.55;89.66;93781.56;5030654;28;20226;-74
2024/01/24 04:55:54;;;;;;;14.60;13.50;;;;;;;1.64;89.07;93782.16;5031502;28;20187;-73
2024/01/24 04:58:19;;;;;;;14.97;13.77;;;;;;;1.49;89.87;93778.97;5031679;28;20230;-74
2024/01/24 05:00:44;;;;;;;15.77;14.20;;;;;;;1.45;94.04;93770.03;5031647;28;20187;-74
2024/01/24 05:03:10;;;;;;;14.20;13.13;;;;;;;1.35;90.37;93782.50;5031411;28;20242;-70
2024/01/24 05:05:35;;;;;;;14.53;13.40;;;;;;;1.49;90.91;93789.25;5037092;28;20218;-71
2024/01/24 05:08:00;;;;;;;16.07;13.27;;;;;;;1.44;90.11;93784.69;5031557;28;20305;-73
2024/01/24 05:10:26;;;;;;;14.30;12.90;;;;;;;1.24;90.53;93776.16;5031651;28;20183;-74
2024/01/24 05:12:52;;;;;;;14.73;13.63;;;;;;;1.49;91.16;93794.41;5031401;28;20222;-76
2024/01/24 05:15:17;;;;;;;15.33;14.07;;;;;;;1.61;91.95;93805.72;5031783;28;20777;-74
2024/01/24 05:17:43;;;;;;;15.13;13.73;;;;;;;1.34;90.73;93776.56;5030500;28;20227;-72
2024/01/24 05:20:10;;;;;;;15.73;14.27;;;;;;;1.51;90.77;93808.66;5031825;28;20197;-74
2024/01/24 05:22:36;;;;;;;14.60;13.60;;;;;;;1.74;91.50;93804.94;5031291;28;20234;-73
2024/01/24 05:25:01;;;;;;;15.30;13.80;;;;;;;1.99;95.41;93824.00;5030488;28;20215;-73
2024/01/24 05:27:27;;;;;;;15.17;14.07;;;;;;;1.85;92.51;93819.81;5030861;28;20227;-72
2024/01/24 05:29:52;;;;;;;14.97;13.53;;;;;;;1.87;91.34;93817.84;5031169;28;20191;-72
2024/01/24 05:32:18;;;;;;;15.77;14.47;;;;;;;1.76;89.26;93837.22;5030593;28;20230;-72
2024/01/24 05:34:44;;;;;;;15.63;14.10;;;;;;;1.51;90.61;93825.88;5030958;28;20190;-71
2024/01/24 05:37:09;;;;;;;15.17;13.93;;;;;;;1.48;90.44;93816.75;5031168;28;20230;-71
2024/01/24 05:39:34;;;;;;;14.70;13.40;;;;;;;1.30;90.01;93795.94;5045311;28;20274;-70
2024/01/24 05:42:00;;;;;;;14.43;13.37;;;;;;;1.38;89.97;93816.34;5030929;28;20263;-73
2024/01/24 05:44:25;;;;;;;15.73;14.20;;;;;;;1.36;89.91;93797.75;5030559;28;20250;-70
2024/01/24 05:46:50;;;;;;;14.83;12.57;;;;;;;1.52;90.36;93814.59;5030348;28;20246;-71
2024/01/24 05:49:16;;;;;;;15.40;14.13;;;;;;;1.47;90.29;93804.09;5029912;28;20214;-71
2024/01/24 05:51:42;;;;;;;14.80;13.60;;;;;;;1.71;89.28;93818.22;5045550;28;20299;-71
2024/01/24 05:54:07;;;;;;;14.53;13.20;;;;;;;1.68;88.99;93820.16;5030809;28;20270;-71
2024/01/24 05:56:33;;;;;;;14.70;13.60;;;;;;;1.72;89.07;93827.50;5029899;28;20310;-71
2024/01/24 05:58:58;;;;;;;15.03;13.67;;;;;;;1.76;88.88;93821.75;5029984;28;20219;-71
2024/01/24 06:01:24;;;;;;;14.13;12.93;;;;;;;1.59;89.34;93800.75;5028885;28;20186;-71
2024/01/24 06:03:49;;;;;;;15.47;14.20;;;;;;;1.68;89.09;93816.81;5027963;28;20218;-71
2024/01/24 06:06:14;;;;;;;13.80;12.60;;;;;;;1.67;89.83;93819.59;5028761;28;20199;-73
2024/01/24 06:08:40;;;;;;;14.67;13.47;;;;;;;1.68;89.02;93815.03;5028876;28;20186;-73
2024/01/24 06:11:05;;;;;;;15.00;13.83;;;;;;;1.54;89.40;93784.34;5028091;28;20191;-73
2024/01/24 06:13:30;;;;;;;15.40;13.87;;;;;;;1.53;89.48;93806.69;5028948;28;20218;-71
2024/01/24 06:15:56;;;;;;;14.10;12.80;;;;;;;1.78;89.89;93811.28;5029296;28;20202;-71
2024/01/24 06:18:22;;;;;;;16.43;15.13;;;;;;;1.67;89.24;93798.00;5028809;28;20242;-71
2024/01/24 06:20:47;;;;;;;14.53;13.27;;;;;;;1.96;88.38;93816.66;5030165;28;20267;-70
2024/01/24 06:23:13;;;;;;;16.10;14.70;;;;;;;1.88;87.57;93814.28;5029839;28;20226;-70
2024/01/24 06:25:38;;;;;;;14.97;13.77;;;;;;;1.92;87.48;93812.88;5029159;28;20294;-69
2024/01/24 06:28:04;;;;;;;16.30;14.70;;;;;;;1.89;87.55;93808.13;5025979;28;20992;-69
2024/01/24 06:30:29;;;;;;;13.90;12.67;;;;;;;1.78;87.93;93799.19;5029948;28;20183;-70
2024/01/24 06:32:54;;;;;;;15.63;14.23;;;;;;;1.71;88.79;93807.91;5029260;28;20233;-71
2024/01/24 06:35:20;;;;;;;14.53;13.23;;;;;;;1.68;88.01;93799.59;5014788;28;20199;-70
2024/01/24 06:37:48;;;;;;;14.43;12.97;;;;;;;1.79;88.85;93800.00;5028864;28;20214;-73
2024/01/24 06:40:14;;;;;;;15.87;14.37;;;;;;;1.68;88.39;93802.16;5026816;28;20434;-72
2024/01/24 06:42:40;;;;;;;13.57;12.67;;;;;;;1.75;87.71;93812.47;5028901;28;20222;-71
2024/01/24 06:45:08;;;;;;;14.07;12.93;;;;;;;1.65;88.29;93806.91;5028253;28;20218;-72
2024/01/24 06:47:34;;;;;;;15.03;13.67;;;;;;;1.72;88.45;93806.91;5029075;28;20257;-70
2024/01/24 06:49:59;;;;;;;14.40;13.23;;;;;;;1.80;88.67;93811.88;5030243;28;20190;-69
2024/01/24 06:52:25;;;;;;;14.10;12.90;;;;;;;1.80;87.54;93804.16;5025758;28;20218;-72
2024/01/24 06:54:51;;;;;;;16.37;14.37;;;;;;;1.84;88.19;93795.84;5029052;28;20186;-71
2024/01/24 06:57:16;;;;;;;14.10;13.00;;;;;;;2.02;87.20;93808.16;5027928;28;20215;-71
2024/01/24 06:59:42;;;;;;;13.27;12.30;;;;;;;1.91;87.28;93795.84;5029116;28;20193;-71
2024/01/24 07:02:07;;;;;;;14.40;13.13;;;;;;;2.22;92.09;93806.38;5022274;28;20218;-71
2024/01/24 07:04:32;;;;;;;15.23;13.60;;;;;;;2.07;86.46;93798.81;5028750;28;20198;-71
2024/01/24 07:06:58;;;;;;;14.93;13.73;;;;;;;1.86;87.67;93787.91;5028531;28;20225;-69
2024/01/24 07:09:23;;;;;;;13.57;12.40;;;;;;;2.06;86.24;93796.44;5029245;28;20194;-72
2024/01/24 07:11:49;;;;;;;15.13;13.73;;;;;;;1.98;87.06;93786.38;5028624;28;20218;-70
2024/01/24 07:14:17;;;;;;;14.67;13.47;;;;;;;1.92;87.15;93785.34;5029028;28;20183;-71
2024/01/24 07:16:44;;;;;;;15.20;13.70;;;;;;;2.04;88.64;93793.28;5028395;28;20318;-71
2024/01/24 07:19:09;;;;;;;14.93;13.87;;;;;;;1.79;86.73;93769.13;5028943;28;20190;-71
2024/01/24 07:21:35;;;;;;;14.93;13.73;;;;;;;1.92;85.96;93776.81;5023639;28;20249;-71
2024/01/24 07:24:00;;;;;;;15.67;14.43;;;;;;;1.88;85.87;93786.75;5027931;28;20222;-70
2024/01/24 07:26:25;;;;;;;14.60;13.40;;;;;;;2.07;85.36;93796.25;5028366;28;20182;-72
2024/01/24 07:28:51;;;;;;;13.40;12.20;;;;;;;2.01;85.62;93796.28;5025494;28;20214;-72
2024/01/24 07:31:17;;;;;;;14.40;13.27;;;;;;;1.92;86.19;93808.53;5024922;28;20222;-70
2024/01/24 07:33:43;;;;;;;14.00;12.80;;;;;;;1.83;85.71;93802.00;5026834;28;20251;-71
2024/01/24 07:36:08;;;;;;;14.57;13.17;;;;;;;1.79;85.80;93805.16;5028977;28;21097;-74
2024/01/24 07:38:33;;;;;;;14.60;13.33;;;;;;;1.89;86.68;93815.84;5031653;28;20219;-73
2024/01/24 07:40:59;;;;;;;16.47;15.00;;;;;;;1.95;86.62;93820.22;5029417;28;20198;-73
2024/01/24 07:43:24;;;;;;;15.23;14.23;;;;;;;1.99;86.45;93822.22;5027852;28;20235;-79
2024/01/24 07:45:50;;;;;;;15.03;13.50;;;;;;;2.13;85.77;93833.31;5029086;28;20261;-76
2024/01/24 07:48:16;;;;;;;15.03;13.87;;;;;;;1.94;85.42;93824.59;5028570;28;20214;-77
2024/01/24 07:50:42;;;;;;;14.73;13.57;;;;;;;2.03;85.24;93845.78;5029664;28;20226;-77
2024/01/24 07:53:08;;;;;;;14.27;13.37;;;;;;;2.02;86.44;93821.03;5029300;28;20210;-76
2024/01/24 07:55:34;;;;;;;15.03;13.60;;;;;;;2.12;86.61;93842.81;5029455;28;20183;-77
2024/01/24 07:57:59;;;;;;;13.63;12.53;;;;;;;2.25;85.64;93835.09;5029471;28;20225;-76
2024/01/24 08:00:26;;;;;;;14.00;12.63;;;;;;;2.01;85.13;93811.72;5029446;28;20212;-76
2024/01/24 08:02:51;;;;;;;13.33;12.47;;;;;;;2.25;84.79;93837.69;5029225;28;20221;-76
2024/01/24 08:05:17;;;;;;;14.10;12.90;;;;;;;2.30;86.18;93842.22;5028947;28;20210;-76
2024/01/24 08:07:42;;;;;;;14.63;13.23;;;;;;;2.28;84.69;93832.13;5028812;28;20215;-76
2024/01/24 08:10:10;;;;;;;17.50;14.57;;;;;;;2.13;85.19;93820.44;5028801;28;20191;-76
2024/01/24 08:12:37;;;;;;;15.43;14.17;;;;;;;2.13;85.41;93828.97;5028641;28;20298;-76
2024/01/24 08:15:05;;;;;;;15.60;14.07;;;;;;;2.26;84.94;93828.16;5028308;28;20277;-76
2024/01/24 08:17:31;;;;;;;14.37;12.90;;;;;;;2.30;84.38;93830.16;5028187;28;20289;-76
2024/01/24 08:19:56;;;;;;;15.37;14.03;;;;;;;2.30;84.90;93847.38;5028963;28;20186;-76
2024/01/24 08:22:22;;;;;;;16.40;14.87;;;;;;;2.21;86.07;93827.97;5029234;28;20229;-76
2024/01/24 08:24:48;;;;;;;16.83;15.43;;;;;;;2.32;85.07;93837.69;5029315;28;20483;-77
2024/01/24 08:27:13;;;;;;;13.83;12.93;;;;;;;2.47;84.07;93851.16;5028971;28;20237;-76
2024/01/24 08:29:39;;;;;;;14.40;13.20;;;;;;;2.41;84.39;93847.56;5029454;28;20199;-76
2024/01/24 08:32:04;;;;;;;14.23;13.13;;;;;;;2.64;83.34;93857.50;5028760;28;20235;-77
2024/01/24 08:34:30;;;;;;;16.17;14.83;;;;;;;2.57;84.91;93848.97;5029267;28;20179;-76
2024/01/24 08:36:55;;;;;;;13.93;12.73;;;;;;;2.25;84.28;93827.38;5028897;28;20219;-76
2024/01/24 08:39:20;;;;;;;14.70;13.67;;;;;;;2.72;84.26;93852.13;5032406;28;20201;-82
2024/01/24 08:41:46;;;;;;;13.13;12.23;;;;;;;2.56;84.15;93844.81;5028799;28;20238;-82
2024/01/24 08:44:11;;;;;;;16.23;14.53;;;;;;;2.56;84.62;93843.03;5028872;28;20222;-73
2024/01/24 08:46:37;;;;;;;13.87;12.83;;;;;;;2.64;86.15;93827.34;5028881;28;20238;-74
2024/01/24 08:49:02;;;;;;;15.43;13.53;;;;;;;2.57;84.72;93836.09;5026387;28;20180;-72
2024/01/24 08:51:31;;;;;;;14.83;13.70;;;;;;;2.44;84.57;93838.66;5027365;28;20195;-72
2024/01/24 08:53:58;;;;;;;14.60;13.57;;;;;;;2.57;85.09;93818.81;5027488;28;20174;-72
2024/01/24 08:56:24;;;;;;;13.77;12.63;;;;;;;2.61;84.34;93820.03;5030038;28;20183;-71
2024/01/24 08:58:49;;;;;;;14.63;13.30;;;;;;;2.57;84.09;93820.63;5028036;28;20263;-72
2024/01/24 09:01:15;;;;;;;15.10;13.67;;;;;;;2.78;84.49;93825.53;5026695;28;20198;-71
2024/01/24 09:03:41;;;;;;;15.43;13.93;;;;;;;2.81;83.66;93801.94;5027412;28;20175;-72
2024/01/24 09:06:07;;;;;;;14.70;13.53;;;;;;;2.89;82.22;93817.19;5027660;28;20191;-73
2024/01/24 09:08:32;;;;;;;13.97;12.87;;;;;;;2.79;82.36;93817.59;5028569;28;20314;-72
2024/01/24 09:10:58;;;;;;;14.33;13.23;;;;;;;2.69;83.16;93819.78;5032032;28;20213;-73
2024/01/24 09:13:23;;;;;;;15.00;13.70;;;;;;;2.64;82.62;93835.09;5031610;28;20262;-72
2024/01/24 09:15:48;;;;;;;15.47;14.20;;;;;;;2.70;82.94;93836.06;5031933;28;20187;-73
2024/01/24 09:18:14;;;;;;;14.87;13.70;;;;;;;2.71;82.74;93829.91;5030142;28;20268;-73
2024/01/24 09:20:39;;;;;;;13.77;12.67;;;;;;;2.76;82.42;93830.09;5032248;28;20250;-72
2024/01/24 09:23:05;;;;;;;16.27;13.97;;;;;;;2.68;83.87;93812.25;5031557;28;20231;-73
2024/01/24 09:25:30;;;;;;;15.83;13.73;;;;;;;2.81;82.68;93825.13;5031958;28;20214;-73
2024/01/24 09:27:56;;;;;;;15.07;13.77;;;;;;;2.78;83.34;93810.06;5031078;28;20227;-73
2024/01/24 09:30:21;;;;;;;20.83;16.53;;;;;;;2.95;83.00;93813.78;5032021;28;20217;-73
2024/01/24 09:32:47;;;;;;;18.47;16.67;;;;;;;2.88;83.33;93806.06;5030943;28;20233;-74
2024/01/24 09:35:12;;;;;;;20.63;14.73;;;;;;;2.92;83.70;93804.69;5031791;28;20175;-74
2024/01/24 09:37:37;;;;;;;16.20;15.07;;;;;;;2.99;83.18;93807.22;5031213;28;20230;-73
2024/01/24 09:40:05;;;;;;;17.83;15.93;;;;;;;2.97;83.58;93798.91;5031669;28;20214;-73
2024/01/24 09:42:35;;;;;;;16.70;15.20;;;;;;;2.84;83.17;93794.59;5030877;28;20241;-73
2024/01/24 09:45:03;;;;;;;15.93;14.43;;;;;;;2.89;83.28;93791.41;5031403;28;20282;-73
2024/01/24 09:47:28;;;;;;;17.67;16.00;;;;;;;2.95;83.44;93799.13;5030646;28;20234;-73
2024/01/24 09:49:54;;;;;;;17.67;15.87;;;;;;;2.68;82.84;93730.56;5030446;28;20191;-75
2024/01/24 09:52:24;;;;;;;15.80;14.30;;;;;;;3.09;82.42;93784.38;5031086;28;20226;-74
2024/01/24 09:54:54;;;;;;;17.20;15.50;;;;;;;3.20;82.27;93781.16;5031551;28;20179;-72
2024/01/24 09:57:21;;;;;;;16.47;14.77;;;;;;;3.06;82.31;93766.75;5030664;28;20245;-73
2024/01/24 09:59:47;;;;;;;16.90;15.23;;;;;;;3.06;82.64;93769.31;5031388;28;20251;-72
2024/01/24 10:02:13;;;;;;;15.97;14.43;;;;;;;3.04;81.48;93755.81;5031120;28;20214;-72
2024/01/24 10:04:39;;;;;;;16.97;15.33;;;;;;;3.21;81.82;93773.22;5028102;28;20214;-73
2024/01/24 10:07:08;;;;;;;17.47;15.83;;;;;;;3.19;81.71;93764.13;5030664;28;20218;-73
2024/01/24 10:09:33;;;;;;;16.90;15.33;;;;;;;3.20;81.70;93737.31;5031368;28;20182;-72
2024/01/24 10:11:59;;;;;;;17.00;15.37;;;;;;;3.18;80.48;93727.19;5030878;28;20214;-79
2024/01/24 10:14:24;;;;;;;19.30;15.77;;;;;;;3.19;81.51;93733.91;5031401;28;20199;-81
2024/01/24 10:16:53;;;;;;;17.03;15.53;;;;;;;3.09;80.87;93745.69;5045595;28;20227;-75
2024/01/24 10:19:23;;;;;;;16.00;14.57;;;;;;;3.27;80.81;93761.28;5030317;28;20271;-74
2024/01/24 10:21:49;;;;;;;16.13;14.77;;;;;;;3.26;80.32;93764.88;5030431;28;20297;-75
2024/01/24 10:24:14;;;;;;;17.43;15.80;;;;;;;3.02;80.60;93734.59;5031247;28;20218;-75
2024/01/24 10:26:40;;;;;;;16.67;14.77;;;;;;;2.84;80.08;93701.75;5030539;28;20219;-74
2024/01/24 10:29:07;;;;;;;16.53;15.07;;;;;;;3.20;79.71;93761.31;5031031;28;20205;-74
2024/01/24 10:31:32;;;;;;;17.37;15.60;;;;;;;3.28;79.56;93743.00;5030263;28;20296;-74
2024/01/24 10:33:58;;;;;;;16.60;15.03;;;;;;;3.50;79.45;93750.44;5029913;28;20203;-75
2024/01/24 10:36:23;;;;;;;16.63;14.97;;;;;;;3.36;79.58;93749.75;5030307;28;20191;-74
2024/01/24 10:38:57;;;;;;;17.37;15.87;;;;;;;3.29;79.63;93734.28;5030297;28;20179;-75
2024/01/24 10:41:25;;;;;;;26.13;17.10;;;;;;;3.32;80.12;93748.56;5029178;28;20183;-74
2024/01/24 10:43:56;;;;;;;20.70;16.87;;;;;;;3.28;80.55;93739.66;5029473;28;20874;-73
2024/01/24 10:46:22;;;;;;;20.87;16.70;;;;;;;3.24;80.97;93720.41;5029159;28;20174;-74
2024/01/24 10:48:49;;;;;;;17.30;15.60;;;;;;;3.49;81.64;93733.38;5029642;28;20191;-74
2024/01/24 10:51:16;;;;;;;19.43;17.57;;;;;;;3.73;79.79;93728.25;5029477;28;20191;-75
2024/01/24 10:53:43;;;;;;;19.00;16.93;;;;;;;3.49;80.78;93713.50;5030069;28;20187;-74
2024/01/24 10:56:10;;;;;;;20.00;16.47;;;;;;;3.36;81.37;93723.94;5030378;28;20197;-74
2024/01/24 10:58:39;;;;;;;21.13;17.90;;;;;;;3.36;82.85;93711.03;5029867;28;20232;-74
2024/01/24 11:01:05;;;;;;;19.60;17.07;;;;;;;3.31;82.23;93703.09;5030441;28;20214;-74
2024/01/24 11:03:30;;;;;;;17.83;16.23;;;;;;;3.57;81.52;93709.88;5030349;28;20226;-74
2024/01/24 11:06:00;;;;;;;18.90;17.20;;;;;;;3.57;81.89;93710.69;5041295;28;20218;-75
2024/01/24 11:08:48;;;;;;;18.87;16.93;;;;;;;3.50;81.44;93693.66;5030034;28;20240;-74
2024/01/24 11:11:17;;;;;;;21.60;17.93;;;;;;;3.29;82.90;93664.59;5030135;28;20187;-74
2024/01/24 11:13:42;;;;;;;28.63;19.93;;;;;;;3.64;81.57;93688.19;5030193;28;20215;-74
2024/01/24 11:16:26;;;;;;;18.27;16.37;;;;;;;3.54;81.28;93697.38;5029933;28;20213;-75
2024/01/24 11:18:51;;;;;;;19.07;16.43;;;;;;;3.47;81.14;93670.84;5029764;28;20202;-75